createdAt,value
2022-12-23T00:01:22.822Z,54.00
2022-12-23T00:03:50.943Z,54.77
2022-12-23T00:06:18.926Z,53.88
2022-12-23T00:08:46.912Z,53.38
2022-12-23T00:11:16.354Z,53.40
2022-12-23T00:14:02.228Z,54.61
2022-12-23T00:16:29.751Z,53.88
2022-12-23T00:18:57.015Z,54.92
2022-12-23T00:21:24.441Z,54.21
2022-12-23T00:23:51.970Z,56.55
2022-12-23T00:26:23.550Z,54.66
2022-12-23T00:28:50.966Z,53.87
2022-12-23T00:31:18.916Z,54.17
2022-12-23T00:33:47.874Z,52.96
2022-12-23T00:36:17.284Z,53.65
2022-12-23T00:39:03.493Z,52.81
2022-12-23T00:41:49.388Z,54.55
2022-12-23T00:44:16.878Z,53.92
2022-12-23T00:46:44.110Z,54.02
2022-12-23T00:49:30.601Z,53.78
2022-12-23T00:51:58.202Z,54.21
2022-12-23T00:54:25.384Z,53.80
2022-12-23T00:56:52.609Z,53.50
2022-12-23T00:59:20.279Z,53.98
2022-12-23T01:02:06.112Z,54.28
2022-12-23T01:04:52.484Z,54.21
2022-12-23T01:07:20.051Z,53.72
2022-12-23T01:09:47.589Z,53.64
2022-12-23T01:12:14.794Z,53.63
2022-12-23T01:14:42.043Z,54.41
2022-12-23T01:17:09.608Z,53.83
2022-12-23T01:19:36.920Z,54.26
2022-12-23T01:22:04.139Z,54.16
2022-12-23T01:24:32.015Z,54.56
2022-12-23T01:26:59.704Z,54.94
2022-12-23T01:29:26.872Z,54.34
2022-12-23T01:31:54.417Z,54.07
2022-12-23T01:34:21.693Z,54.33
2022-12-23T01:36:48.872Z,54.43
2022-12-23T01:39:16.312Z,54.72
2022-12-23T01:42:02.091Z,54.83
2022-12-23T01:44:48.310Z,54.33
2022-12-23T01:47:34.183Z,54.55
2022-12-23T01:50:04.341Z,53.66
2022-12-23T01:52:32.074Z,54.33
2022-12-23T01:54:59.324Z,54.16
2022-12-23T01:57:26.782Z,54.34
2022-12-23T02:00:12.680Z,54.54
2022-12-23T02:02:58.674Z,54.69
2022-12-23T02:05:26.236Z,54.28
2022-12-23T02:08:12.028Z,54.11
2022-12-23T02:11:02.951Z,53.81
2022-12-23T02:13:32.932Z,54.40
2022-12-23T02:16:18.538Z,54.54
2022-12-23T02:18:48.655Z,53.59
2022-12-23T02:21:25.107Z,53.45
2022-12-23T02:23:57.240Z,55.63
2022-12-23T02:26:24.711Z,54.32
2022-12-23T02:29:01.275Z,54.22
2022-12-23T02:31:47.633Z,54.04
2022-12-23T02:34:27.812Z,54.68
2022-12-23T02:36:55.330Z,54.99
2022-12-23T02:39:51.845Z,55.14
2022-12-23T02:42:32.589Z,55.15
2022-12-23T02:44:59.772Z,56.48
2022-12-23T02:47:34.871Z,59.09
2022-12-23T02:50:04.008Z,60.73
2022-12-23T02:52:31.930Z,62.08
2022-12-23T02:55:01.019Z,62.66
2022-12-23T02:57:29.808Z,64.78
2022-12-23T02:59:57.258Z,63.87
2022-12-23T03:02:24.576Z,62.28
2022-12-23T03:04:51.880Z,61.44
2022-12-23T03:07:33.830Z,61.88
2022-12-23T03:10:04.264Z,60.78
2022-12-23T03:12:52.221Z,64.85
2022-12-23T03:15:25.104Z,66.71
2022-12-23T03:17:57.806Z,65.08
2022-12-23T03:20:44.627Z,63.37
2022-12-23T03:23:18.293Z,62.81
2022-12-23T03:25:52.323Z,64.55
2022-12-23T03:28:21.632Z,68.61
2022-12-23T03:30:50.821Z,68.69
2022-12-23T03:33:24.581Z,65.28
2022-12-23T03:35:53.773Z,65.75
2022-12-23T03:38:20.982Z,64.69
2022-12-23T03:40:49.912Z,63.70
2022-12-23T03:43:22.334Z,61.80
2022-12-23T03:45:50.716Z,63.97
2022-12-23T03:48:19.819Z,61.35
2022-12-23T03:50:47.558Z,60.52
2022-12-23T03:53:16.975Z,60.84
2022-12-23T03:55:49.497Z,60.06
2022-12-23T03:58:24.310Z,61.03
2022-12-23T04:00:57.696Z,60.02
2022-12-23T04:03:25.125Z,59.28
2022-12-23T04:05:56.412Z,63.57
2022-12-23T04:08:25.564Z,59.54
2022-12-23T04:10:52.982Z,58.91
2022-12-23T04:13:20.366Z,58.04
2022-12-23T04:15:47.579Z,60.43
2022-12-23T04:18:16.398Z,59.07
2022-12-23T04:20:43.564Z,64.29
2022-12-23T04:23:10.788Z,59.27
2022-12-23T04:25:38.595Z,57.82
2022-12-23T04:28:05.820Z,59.81
2022-12-23T04:30:34.645Z,63.81
2022-12-23T04:33:03.158Z,63.01
2022-12-23T04:35:30.360Z,65.41
2022-12-23T04:37:57.579Z,61.44
2022-12-23T04:40:25.102Z,60.17
2022-12-23T04:42:52.245Z,60.06
2022-12-23T04:45:19.523Z,59.49
2022-12-23T04:47:47.034Z,61.29
2022-12-23T04:50:14.905Z,61.53
2022-12-23T04:52:42.618Z,63.48
2022-12-23T04:55:10.360Z,63.57
2022-12-23T04:57:37.510Z,62.82
2022-12-23T05:00:05.206Z,62.17
2022-12-23T05:02:32.775Z,62.81
2022-12-23T05:05:00.042Z,63.19
2022-12-23T05:07:27.238Z,60.61
2022-12-23T05:09:54.725Z,60.02
2022-12-23T05:12:21.848Z,58.94
2022-12-23T05:14:49.021Z,57.97
2022-12-23T05:17:16.525Z,57.76
2022-12-23T05:19:43.721Z,57.81
2022-12-23T05:22:10.889Z,57.96
2022-12-23T05:24:38.409Z,56.53
2022-12-23T05:27:05.601Z,56.27
2022-12-23T05:29:32.829Z,56.12
2022-12-23T05:32:00.360Z,56.16
2022-12-23T05:34:27.694Z,55.92
2022-12-23T05:36:54.866Z,56.35
2022-12-23T05:39:22.302Z,57.58
2022-12-23T05:41:49.505Z,56.14
2022-12-23T05:44:16.820Z,55.96
2022-12-23T05:46:44.421Z,56.44
2022-12-23T05:49:11.833Z,56.94
2022-12-23T05:51:39.060Z,57.23
2022-12-23T05:54:06.471Z,58.52
2022-12-23T05:56:33.659Z,58.84
2022-12-23T05:59:00.815Z,57.55
2022-12-23T06:01:28.886Z,56.76
2022-12-23T06:03:56.518Z,56.42
2022-12-23T06:06:23.796Z,55.78
2022-12-23T06:08:55.734Z,57.28
2022-12-23T06:11:26.776Z,57.76
2022-12-23T06:13:54.005Z,56.80
2022-12-23T06:16:21.317Z,55.49
2022-12-23T06:18:48.854Z,55.42
2022-12-23T06:21:16.094Z,56.69
2022-12-23T06:23:43.361Z,58.13
2022-12-23T06:26:10.862Z,57.01
2022-12-23T06:28:38.031Z,59.82
2022-12-23T06:31:05.263Z,59.70
2022-12-23T06:33:32.777Z,59.53
2022-12-23T06:36:00.105Z,57.26
2022-12-23T06:38:27.320Z,56.61
2022-12-23T06:40:54.837Z,55.38
2022-12-23T06:43:22.040Z,55.94
2022-12-23T06:45:49.674Z,55.72
2022-12-23T06:48:17.402Z,54.35
2022-12-23T06:50:44.732Z,54.33
2022-12-23T06:53:12.202Z,55.83
2022-12-23T06:55:39.681Z,57.18
2022-12-23T06:58:06.822Z,55.75
2022-12-23T07:00:34.328Z,55.98
2022-12-23T07:03:01.927Z,55.90
2022-12-23T07:05:36.475Z,57.47
2022-12-23T07:08:04.938Z,57.97
2022-12-23T07:10:32.135Z,61.15
2022-12-23T07:12:59.378Z,60.71
2022-12-23T07:15:26.820Z,61.37
2022-12-23T07:17:54.380Z,60.15
2022-12-23T07:20:21.540Z,58.92
2022-12-23T07:22:50.337Z,59.64
2022-12-23T07:25:17.583Z,58.00
2022-12-23T07:27:44.795Z,57.73
2022-12-23T07:30:12.345Z,58.91
2022-12-23T07:32:39.626Z,57.65
2022-12-23T07:35:06.898Z,59.20
2022-12-23T07:37:34.663Z,60.14
2022-12-23T07:40:08.075Z,56.49
2022-12-23T07:42:45.687Z,57.17
2022-12-23T07:45:13.945Z,58.07
2022-12-23T07:47:41.619Z,56.71
2022-12-23T07:50:09.109Z,57.77
2022-12-23T07:52:36.292Z,56.94
2022-12-23T07:55:03.918Z,55.69
2022-12-23T07:57:37.455Z,56.96
2022-12-23T08:00:05.641Z,54.58
2022-12-23T08:02:39.672Z,55.92
2022-12-23T08:05:07.654Z,55.93
2022-12-23T08:07:34.924Z,56.48
2022-12-23T08:10:02.267Z,56.71
2022-12-23T08:12:30.038Z,59.97
2022-12-23T08:14:57.331Z,57.38
2022-12-23T08:17:28.006Z,59.84
2022-12-23T08:19:55.627Z,57.67
2022-12-23T08:22:22.970Z,59.26
2022-12-23T08:24:50.130Z,57.64
2022-12-23T08:27:17.703Z,59.16
2022-12-23T08:29:44.944Z,58.45
2022-12-23T08:32:12.311Z,56.20
2022-12-23T08:34:39.785Z,56.28
2022-12-23T08:37:06.997Z,59.54
2022-12-23T08:39:34.297Z,59.07
2022-12-23T08:42:01.915Z,57.64
2022-12-23T08:44:29.796Z,56.85
2022-12-23T08:46:57.065Z,56.73
2022-12-23T08:49:24.510Z,60.00
2022-12-23T08:51:51.791Z,58.27
2022-12-23T08:54:20.496Z,59.61
2022-12-23T08:56:48.037Z,62.68
2022-12-23T08:59:19.328Z,61.40
2022-12-23T09:01:47.161Z,63.87
2022-12-23T09:04:14.726Z,66.00
2022-12-23T09:06:42.403Z,64.89
2022-12-23T09:09:10.467Z,61.32
2022-12-23T09:11:38.118Z,60.10
2022-12-23T09:14:05.748Z,60.66
2022-12-23T09:16:33.108Z,60.03
2022-12-23T09:19:00.685Z,58.88
2022-12-23T09:21:27.939Z,60.60
2022-12-23T09:23:55.126Z,57.86
2022-12-23T09:26:23.716Z,57.18
2022-12-23T09:28:51.327Z,58.53
2022-12-23T09:31:18.783Z,57.47
2022-12-23T09:33:47.010Z,58.35
2022-12-23T09:36:14.204Z,60.08
2022-12-23T09:38:41.634Z,60.50
2022-12-23T09:41:12.992Z,61.58
2022-12-23T09:43:43.717Z,59.72
2022-12-23T09:46:14.334Z,59.85
2022-12-23T09:48:45.589Z,61.16
2022-12-23T09:51:13.250Z,60.75
2022-12-23T09:53:52.900Z,58.15
2022-12-23T09:56:24.123Z,61.35
2022-12-23T09:58:53.798Z,58.47
2022-12-23T10:01:50.813Z,58.78
2022-12-23T10:04:38.112Z,58.69
2022-12-23T10:07:05.348Z,60.24
2022-12-23T10:09:33.084Z,63.55
2022-12-23T10:12:00.337Z,59.56
2022-12-23T10:14:31.396Z,57.55
2022-12-23T10:17:00.241Z,57.23
2022-12-23T10:19:32.330Z,60.44
2022-12-23T10:22:03.740Z,57.81
2022-12-23T10:24:35.230Z,58.94
2022-12-23T10:27:21.604Z,56.88
2022-12-23T10:29:48.786Z,56.58
2022-12-23T10:32:34.969Z,56.03
2022-12-23T10:35:21.079Z,55.04
2022-12-23T10:37:52.165Z,55.92
2022-12-23T10:40:39.731Z,56.75
2022-12-23T10:43:22.568Z,56.36
2022-12-23T10:45:49.749Z,56.78
2022-12-23T10:48:35.876Z,56.86
2022-12-23T10:51:13.275Z,63.69
2022-12-23T10:53:42.960Z,57.95
2022-12-23T10:56:10.294Z,58.31
2022-12-23T10:58:38.679Z,57.71
2022-12-23T11:01:14.156Z,56.11
2022-12-23T11:03:55.975Z,57.34
2022-12-23T11:06:23.541Z,56.20
2022-12-23T11:08:50.813Z,56.54
2022-12-23T11:11:18.040Z,57.49
2022-12-23T11:13:46.043Z,55.91
2022-12-23T11:16:13.477Z,55.72
2022-12-23T11:18:52.027Z,56.47
2022-12-23T11:21:19.674Z,55.22
2022-12-23T11:23:46.853Z,55.13
2022-12-23T11:26:17.800Z,55.39
2022-12-23T11:28:49.022Z,55.44
2022-12-23T11:31:17.359Z,55.39
2022-12-23T11:33:52.221Z,55.37
2022-12-23T11:36:23.837Z,55.38
2022-12-23T11:39:09.599Z,55.54
2022-12-23T11:41:38.015Z,55.44
2022-12-23T11:44:26.401Z,55.05
2022-12-23T11:46:53.838Z,56.91
2022-12-23T11:49:22.640Z,56.59
2022-12-23T11:52:09.590Z,54.86
2022-12-23T11:54:37.263Z,54.73
2022-12-23T11:57:06.137Z,54.69
2022-12-23T11:59:40.162Z,54.30
2022-12-23T12:02:14.771Z,54.97
2022-12-23T12:04:42.350Z,54.15
2022-12-23T12:07:12.176Z,54.61
2022-12-23T12:09:39.735Z,54.23
2022-12-23T12:12:07.984Z,54.34
2022-12-23T12:14:42.826Z,54.99
2022-12-23T12:17:14.529Z,54.40
2022-12-23T12:20:02.033Z,53.86
2022-12-23T12:22:35.386Z,55.45
2022-12-23T12:25:22.926Z,53.81
2022-12-23T12:27:58.264Z,56.64
2022-12-23T12:30:25.526Z,54.66
2022-12-23T12:32:56.048Z,54.06
2022-12-23T12:35:27.884Z,55.42
2022-12-23T12:37:57.008Z,55.59
2022-12-23T12:40:44.614Z,55.66
2022-12-23T12:43:27.009Z,55.50
2022-12-23T12:46:03.458Z,56.36
2022-12-23T12:48:40.218Z,55.74
2022-12-23T12:51:17.100Z,54.41
2022-12-23T12:54:06.317Z,54.68
2022-12-23T12:56:39.521Z,55.16
2022-12-23T12:59:08.566Z,55.22
2022-12-23T13:01:45.314Z,55.46
2022-12-23T13:04:26.164Z,55.13
2022-12-23T13:06:59.866Z,55.37
2022-12-23T13:09:47.145Z,55.21
2022-12-23T13:12:30.663Z,54.79
2022-12-23T13:14:58.026Z,55.62
2022-12-23T13:17:40.633Z,54.89
2022-12-23T13:20:17.314Z,55.10
2022-12-23T13:22:45.334Z,54.47
2022-12-23T13:25:23.115Z,54.63
2022-12-23T13:27:53.264Z,54.65
2022-12-23T13:30:23.647Z,54.05
2022-12-23T13:32:50.789Z,54.03
2022-12-23T13:35:18.849Z,54.89
2022-12-23T13:38:04.989Z,54.83
2022-12-23T13:40:41.151Z,53.82
2022-12-23T13:43:16.314Z,53.49
2022-12-23T13:45:43.647Z,53.94
2022-12-23T13:48:16.610Z,54.09
2022-12-23T13:50:50.310Z,53.77
2022-12-23T13:53:27.246Z,54.11
2022-12-23T13:56:03.608Z,54.83
2022-12-23T13:58:34.096Z,53.97
2022-12-23T14:01:10.538Z,53.44
2022-12-23T14:03:38.684Z,53.62
2022-12-23T14:06:19.099Z,53.64
2022-12-23T14:08:47.583Z,53.38
2022-12-23T14:11:16.725Z,54.42
2022-12-23T14:13:45.256Z,54.37
2022-12-23T14:16:25.082Z,54.13
2022-12-23T14:18:52.326Z,54.27
2022-12-23T14:21:31.971Z,54.69
2022-12-23T14:24:18.338Z,53.94
2022-12-23T14:26:57.986Z,54.51
2022-12-23T14:30:06.831Z,54.15
2022-12-23T14:32:38.816Z,54.12
2022-12-23T14:35:16.351Z,53.87
2022-12-23T14:37:43.964Z,54.86
2022-12-23T14:40:29.847Z,53.91
2022-12-23T14:43:16.109Z,53.84
2022-12-23T14:45:43.477Z,54.33
2022-12-23T14:48:29.701Z,53.87
2022-12-23T14:50:57.958Z,54.40
2022-12-23T14:53:34.576Z,54.79
2022-12-23T14:56:11.029Z,55.34
2022-12-23T14:58:39.883Z,54.70
2022-12-23T15:01:13.126Z,54.05
2022-12-23T15:03:45.903Z,54.04
2022-12-23T15:06:15.446Z,54.10
2022-12-23T15:08:43.871Z,54.70
2022-12-23T15:11:15.816Z,53.74
2022-12-23T15:13:43.278Z,53.77
2022-12-23T15:16:15.343Z,53.57
2022-12-23T15:18:55.742Z,53.92
2022-12-23T15:21:29.896Z,54.43
2022-12-23T15:23:57.566Z,54.43
2022-12-23T15:26:26.344Z,54.23
2022-12-23T15:28:53.796Z,55.03
2022-12-23T15:31:27.438Z,54.31
2022-12-23T15:34:04.686Z,54.95
2022-12-23T15:36:37.069Z,54.11
2022-12-23T15:39:08.628Z,54.50
2022-12-23T15:41:46.116Z,54.31
2022-12-23T15:44:14.509Z,54.06
2022-12-23T15:46:42.196Z,54.58
2022-12-23T15:49:10.480Z,54.26
2022-12-23T15:52:06.366Z,54.21
2022-12-23T15:54:30.214Z,53.80
2022-12-23T15:56:58.043Z,54.18
2022-12-23T15:59:29.480Z,55.11
2022-12-23T16:01:57.118Z,54.81
2022-12-23T16:04:26.024Z,54.47
2022-12-23T16:06:53.673Z,54.58
2022-12-23T16:09:20.842Z,54.24
2022-12-23T16:11:53.725Z,54.75
2022-12-23T16:14:28.100Z,54.29
2022-12-23T16:16:58.268Z,54.53
2022-12-23T16:19:55.073Z,55.19
2022-12-23T16:22:22.559Z,55.09
2022-12-23T16:24:58.715Z,54.65
2022-12-23T16:27:33.978Z,54.80
2022-12-23T16:30:02.328Z,55.59
2022-12-23T16:32:30.439Z,56.12
2022-12-23T16:34:57.671Z,55.57
2022-12-23T16:37:24.832Z,55.76
2022-12-23T16:39:52.328Z,56.00
2022-12-23T16:42:19.581Z,55.40
2022-12-23T16:44:46.873Z,55.14
2022-12-23T16:47:15.178Z,55.49
2022-12-23T16:49:42.444Z,55.27
2022-12-23T16:52:09.806Z,55.32
2022-12-23T16:54:37.306Z,55.57
2022-12-23T16:57:04.536Z,55.35
2022-12-23T16:59:31.698Z,55.65
2022-12-23T17:02:03.438Z,55.28
2022-12-23T17:04:31.231Z,55.12
2022-12-23T17:06:59.064Z,55.16
2022-12-23T17:09:26.394Z,55.31
2022-12-23T17:11:53.562Z,54.95
2022-12-23T17:14:22.532Z,54.52
2022-12-23T17:16:50.005Z,54.68
2022-12-23T17:19:20.645Z,55.14
2022-12-23T17:21:53.351Z,54.50
2022-12-23T17:24:22.657Z,54.55
2022-12-23T17:26:50.123Z,55.01
2022-12-23T17:29:18.195Z,54.50
2022-12-23T17:31:45.410Z,53.75
2022-12-23T17:34:19.852Z,53.95
2022-12-23T17:36:50.320Z,53.91
2022-12-23T17:39:18.867Z,53.69
2022-12-23T17:41:46.122Z,54.29
2022-12-23T17:44:14.397Z,55.35
2022-12-23T17:46:41.796Z,55.39
2022-12-23T17:49:09.024Z,54.57
2022-12-23T17:51:36.583Z,55.27
2022-12-23T17:54:05.761Z,55.42
2022-12-23T17:56:33.064Z,55.90
2022-12-23T17:59:00.559Z,56.33
2022-12-23T18:01:29.970Z,56.28
2022-12-23T18:03:58.020Z,56.02
2022-12-23T18:06:25.720Z,56.51
2022-12-23T18:08:52.953Z,56.93
2022-12-23T18:11:29.289Z,56.63
2022-12-23T18:13:56.433Z,56.63
2022-12-23T18:16:24.033Z,57.73
2022-12-23T18:18:51.927Z,58.20
2022-12-23T18:21:25.625Z,57.87
2022-12-23T18:23:57.781Z,57.57
2022-12-23T18:26:25.042Z,57.21
2022-12-23T18:28:54.337Z,57.74
2022-12-23T18:31:22.871Z,60.59
2022-12-23T18:33:50.897Z,59.62
2022-12-23T18:36:25.519Z,59.45
2022-12-23T18:38:53.018Z,58.53
2022-12-23T18:41:21.137Z,58.32
2022-12-23T18:43:48.430Z,58.06
2022-12-23T18:46:15.699Z,57.63
2022-12-23T18:48:43.277Z,57.23
2022-12-23T18:51:12.908Z,57.64
2022-12-23T18:53:40.184Z,58.15
2022-12-23T18:56:09.899Z,58.62
2022-12-23T18:58:37.297Z,57.64
2022-12-23T19:01:04.616Z,57.10
2022-12-23T19:03:32.171Z,57.20
2022-12-23T19:06:06.633Z,56.60
2022-12-23T19:08:35.124Z,57.27
2022-12-23T19:11:02.434Z,56.96
2022-12-23T19:13:29.895Z,57.01
2022-12-23T19:15:57.368Z,56.90
2022-12-23T19:18:24.661Z,56.50
2022-12-23T19:20:51.913Z,55.75
2022-12-23T19:23:19.419Z,55.97
2022-12-23T19:25:54.561Z,56.78
2022-12-23T19:28:23.919Z,56.75
2022-12-23T19:30:51.212Z,57.06
2022-12-23T19:33:18.546Z,56.27
2022-12-23T19:35:46.108Z,56.38
2022-12-23T19:38:13.354Z,56.88
2022-12-23T19:40:40.572Z,56.20
2022-12-23T19:43:08.207Z,56.26
2022-12-23T19:45:35.401Z,54.92
2022-12-23T19:48:02.573Z,56.54
2022-12-23T19:50:30.094Z,55.96
2022-12-23T19:52:57.510Z,56.13
2022-12-23T19:55:24.935Z,55.51
2022-12-23T19:57:52.677Z,55.98
2022-12-23T20:00:19.889Z,55.84
2022-12-23T20:02:47.524Z,54.97
2022-12-23T20:05:17.358Z,55.43
2022-12-23T20:07:44.690Z,55.36
2022-12-23T20:10:12.226Z,54.99
2022-12-23T20:12:39.432Z,54.70
2022-12-23T20:15:07.012Z,55.10
2022-12-23T20:17:34.464Z,53.09
2022-12-23T20:20:01.846Z,53.91
2022-12-23T20:22:29.024Z,52.97
2022-12-23T20:24:57.124Z,56.57
2022-12-23T20:27:28.163Z,54.33
2022-12-23T20:29:55.591Z,53.83
2022-12-23T20:32:23.066Z,53.98
2022-12-23T20:34:50.371Z,53.07
2022-12-23T20:37:18.045Z,53.12
2022-12-23T20:39:45.927Z,53.32
2022-12-23T20:42:13.241Z,53.61
2022-12-23T20:44:40.493Z,53.61
2022-12-23T20:47:07.996Z,53.66
2022-12-23T20:49:35.305Z,53.06
2022-12-23T20:52:02.863Z,52.18
2022-12-23T20:54:33.649Z,53.17
2022-12-23T20:57:01.741Z,53.07
2022-12-23T20:59:29.194Z,53.03
2022-12-23T21:01:59.087Z,53.84
2022-12-23T21:04:26.790Z,52.67
2022-12-23T21:06:54.039Z,52.78
2022-12-23T21:09:21.499Z,52.64
2022-12-23T21:11:49.683Z,52.45
2022-12-23T21:14:17.093Z,52.30
2022-12-23T21:16:44.861Z,53.55
2022-12-23T21:19:16.401Z,53.03
2022-12-23T21:21:43.650Z,52.75
2022-12-23T21:24:11.253Z,53.96
2022-12-23T21:26:38.635Z,53.47
2022-12-23T21:29:06.744Z,53.37
2022-12-23T21:31:35.373Z,53.64
2022-12-23T21:34:02.801Z,52.79
2022-12-23T21:36:31.177Z,52.99
2022-12-23T21:38:59.096Z,53.32
2022-12-23T21:41:27.643Z,54.20
2022-12-23T21:43:55.946Z,55.24
2022-12-23T21:46:23.606Z,55.66
2022-12-23T21:48:51.017Z,55.00
2022-12-23T21:51:22.822Z,55.72
2022-12-23T21:53:51.323Z,56.44
2022-12-23T21:56:24.191Z,57.42
2022-12-23T21:58:55.921Z,57.54
2022-12-23T22:01:23.595Z,55.96
2022-12-23T22:03:52.114Z,58.46
2022-12-23T22:06:20.525Z,59.54
2022-12-23T22:08:48.066Z,58.03
2022-12-23T22:11:16.992Z,57.86
2022-12-23T22:13:44.340Z,57.56
2022-12-23T22:16:12.569Z,60.90
2022-12-23T22:18:40.384Z,60.46
2022-12-23T22:21:09.035Z,59.42
2022-12-23T22:23:36.831Z,59.03
2022-12-23T22:26:04.569Z,57.75
2022-12-23T22:28:32.316Z,58.61
2022-12-23T22:31:06.319Z,56.80
2022-12-23T22:33:34.064Z,57.56
2022-12-23T22:36:01.360Z,56.66
2022-12-23T22:38:28.686Z,56.76
2022-12-23T22:40:56.198Z,56.56
2022-12-23T22:43:23.432Z,56.73
2022-12-23T22:45:57.161Z,56.30
2022-12-23T22:48:25.840Z,56.77
2022-12-23T22:51:00.679Z,57.08
2022-12-23T22:53:30.010Z,56.70
2022-12-23T22:56:01.024Z,56.89
2022-12-23T22:58:29.148Z,56.24
2022-12-23T23:00:56.495Z,56.20
2022-12-23T23:03:25.590Z,56.07
2022-12-23T23:06:03.557Z,55.27
2022-12-23T23:08:31.098Z,55.84
2022-12-23T23:10:59.303Z,55.87
2022-12-23T23:13:27.589Z,55.79
2022-12-23T23:15:56.000Z,55.54
2022-12-23T23:18:23.918Z,55.33
2022-12-23T23:20:51.061Z,55.37
2022-12-23T23:23:18.236Z,55.45
2022-12-23T23:25:45.892Z,55.50
2022-12-23T23:28:13.422Z,56.14
2022-12-23T23:30:40.735Z,55.90
2022-12-23T23:33:08.407Z,55.88
2022-12-23T23:35:35.612Z,56.65
2022-12-23T23:38:02.800Z,55.65
2022-12-23T23:40:30.261Z,56.10
2022-12-23T23:42:57.368Z,55.99
2022-12-23T23:45:24.621Z,55.98
2022-12-23T23:47:52.112Z,55.58
2022-12-23T23:50:19.404Z,55.08
2022-12-23T23:52:46.581Z,54.81
2022-12-23T23:55:14.041Z,55.71
2022-12-23T23:57:41.245Z,55.62
